createdAt,value
2022-11-08T00:02:24.629Z,17.07
2022-11-08T00:04:51.653Z,17.06
2022-11-08T00:07:37.042Z,16.84
2022-11-08T00:10:23.179Z,17.02
2022-11-08T00:13:08.907Z,16.99
2022-11-08T00:15:39.190Z,16.96
2022-11-08T00:18:07.956Z,16.94
2022-11-08T00:20:35.411Z,16.92
2022-11-08T00:23:02.541Z,16.90
2022-11-08T00:25:29.490Z,16.90
2022-11-08T00:27:56.419Z,16.82
2022-11-08T00:30:23.454Z,16.86
2022-11-08T00:32:50.288Z,16.82
2022-11-08T00:35:17.285Z,16.76
2022-11-08T00:37:44.165Z,16.81
2022-11-08T00:40:12.021Z,16.80
2022-11-08T00:42:38.942Z,16.78
2022-11-08T00:45:06.303Z,16.71
2022-11-08T00:47:33.977Z,16.75
2022-11-08T00:50:00.867Z,16.70
2022-11-08T00:52:28.008Z,16.73
2022-11-08T00:54:54.844Z,16.72
2022-11-08T00:57:27.494Z,16.70
2022-11-08T01:00:08.687Z,16.69
2022-11-08T01:02:35.776Z,16.67
2022-11-08T01:05:02.705Z,16.66
2022-11-08T01:07:29.535Z,16.65
2022-11-08T01:09:56.533Z,16.64
2022-11-08T01:12:23.373Z,16.62
2022-11-08T01:14:50.478Z,16.62
2022-11-08T01:17:17.394Z,16.54
2022-11-08T01:19:44.258Z,16.59
2022-11-08T01:22:11.083Z,16.58
2022-11-08T01:24:38.111Z,16.58
2022-11-08T01:27:05.055Z,16.57
2022-11-08T01:29:33.196Z,16.56
2022-11-08T01:32:00.026Z,16.56
2022-11-08T01:34:26.966Z,16.55
2022-11-08T01:36:53.805Z,16.51
2022-11-08T01:39:20.749Z,16.51
2022-11-08T01:41:47.790Z,16.43
2022-11-08T01:44:17.959Z,16.50
2022-11-08T01:46:48.017Z,16.50
2022-11-08T01:49:33.433Z,16.48
2022-11-08T01:52:12.531Z,16.48
2022-11-08T01:54:46.217Z,16.41
2022-11-08T01:57:20.180Z,16.45
2022-11-08T01:59:51.138Z,16.44
2022-11-08T02:02:18.520Z,16.40
2022-11-08T02:04:45.578Z,16.43
2022-11-08T02:07:14.317Z,16.44
2022-11-08T02:09:45.985Z,16.43
2022-11-08T02:12:13.112Z,16.42
2022-11-08T02:14:40.044Z,16.41
2022-11-08T02:17:08.173Z,16.33
2022-11-08T02:19:53.074Z,16.39
2022-11-08T02:23:12.269Z,16.38
2022-11-08T02:25:39.159Z,16.38
2022-11-08T02:28:06.084Z,16.37
2022-11-08T02:30:34.614Z,16.36
2022-11-08T02:33:01.637Z,16.35
2022-11-08T02:35:28.565Z,16.36
2022-11-08T02:37:55.593Z,16.36
2022-11-08T02:40:22.445Z,16.35
2022-11-08T02:42:49.516Z,16.34
2022-11-08T02:45:16.500Z,16.35
2022-11-08T02:47:44.924Z,16.34
2022-11-08T02:50:11.880Z,16.34
2022-11-08T02:52:38.725Z,16.34
2022-11-08T02:55:05.985Z,16.33
2022-11-08T02:57:33.181Z,16.32
2022-11-08T03:00:00.113Z,16.32
2022-11-08T03:02:27.182Z,16.32
2022-11-08T03:04:54.125Z,16.32
2022-11-08T03:07:24.816Z,16.32
2022-11-08T03:09:52.084Z,16.33
2022-11-08T03:12:20.479Z,16.32
2022-11-08T03:14:47.353Z,16.31
2022-11-08T03:17:14.366Z,16.31
2022-11-08T03:19:41.263Z,16.29
2022-11-08T03:22:08.200Z,16.29
2022-11-08T03:24:35.105Z,16.28
2022-11-08T03:27:03.376Z,16.30
2022-11-08T03:29:30.237Z,16.29
2022-11-08T03:31:57.113Z,16.28
2022-11-08T03:34:24.007Z,16.28
2022-11-08T03:36:50.928Z,16.28
2022-11-08T03:39:17.820Z,16.27
2022-11-08T03:41:45.082Z,16.27
2022-11-08T03:44:11.929Z,16.26
2022-11-08T03:46:38.798Z,16.27
2022-11-08T03:49:05.729Z,16.20
2022-11-08T03:51:32.591Z,16.26
2022-11-08T03:53:59.499Z,16.26
2022-11-08T03:56:26.408Z,16.26
2022-11-08T03:58:53.287Z,16.25
2022-11-08T04:01:20.327Z,16.26
2022-11-08T04:03:47.251Z,16.25
2022-11-08T04:06:14.099Z,16.25
2022-11-08T04:08:40.958Z,16.25
2022-11-08T04:11:26.282Z,16.25
2022-11-08T04:14:12.039Z,16.24
2022-11-08T04:16:38.876Z,16.25
2022-11-08T04:19:24.564Z,16.24
2022-11-08T04:21:53.827Z,16.25
2022-11-08T04:24:21.736Z,16.25
2022-11-08T04:26:48.842Z,16.25
2022-11-08T04:29:15.805Z,16.23
2022-11-08T04:31:42.814Z,16.24
2022-11-08T04:34:09.859Z,16.24
2022-11-08T04:36:36.775Z,16.22
2022-11-08T04:39:04.458Z,16.23
2022-11-08T04:41:31.459Z,16.22
2022-11-08T04:43:58.340Z,16.22
2022-11-08T04:46:27.696Z,16.21
2022-11-08T04:48:56.977Z,16.22
2022-11-08T04:51:28.715Z,16.20
2022-11-08T04:53:57.901Z,16.20
2022-11-08T04:56:25.883Z,16.20
2022-11-08T04:58:55.398Z,16.20
2022-11-08T05:01:25.064Z,16.19
2022-11-08T05:03:53.791Z,16.19
2022-11-08T05:06:23.818Z,16.19
2022-11-08T05:08:51.457Z,16.17
2022-11-08T05:11:21.488Z,16.17
2022-11-08T05:13:49.728Z,16.17
2022-11-08T05:16:19.930Z,16.17
2022-11-08T05:18:47.139Z,16.15
2022-11-08T05:21:35.767Z,16.15
2022-11-08T05:24:04.668Z,16.15
2022-11-08T05:26:34.395Z,16.14
2022-11-08T05:29:01.419Z,16.14
2022-11-08T05:31:28.393Z,16.07
2022-11-08T05:33:55.364Z,16.13
2022-11-08T05:36:22.482Z,16.13
2022-11-08T05:38:49.276Z,16.12
2022-11-08T05:41:21.024Z,16.12
2022-11-08T05:43:50.533Z,16.11
2022-11-08T05:46:18.759Z,16.11
2022-11-08T05:48:47.150Z,16.10
2022-11-08T05:51:16.601Z,16.09
2022-11-08T05:53:43.580Z,16.03
2022-11-08T05:56:10.527Z,16.15
2022-11-08T05:58:37.751Z,16.17
2022-11-08T06:01:10.098Z,16.14
2022-11-08T06:03:37.849Z,16.24
2022-11-08T06:06:10.143Z,16.23
2022-11-08T06:08:37.620Z,16.19
2022-11-08T06:11:19.999Z,16.14
2022-11-08T06:13:46.869Z,16.14
2022-11-08T06:16:15.794Z,16.17
2022-11-08T06:18:43.258Z,16.17
2022-11-08T06:21:15.166Z,16.19
2022-11-08T06:23:42.618Z,16.21
2022-11-08T06:26:10.002Z,16.21
2022-11-08T06:28:36.826Z,16.23
2022-11-08T06:31:04.974Z,16.23
2022-11-08T06:33:32.319Z,16.22
2022-11-08T06:35:59.288Z,16.24
2022-11-08T06:38:26.304Z,16.25
2022-11-08T06:40:53.084Z,16.26
2022-11-08T06:43:20.475Z,16.20
2022-11-08T06:45:47.813Z,16.26
2022-11-08T06:48:14.699Z,16.27
2022-11-08T06:50:42.380Z,16.27
2022-11-08T06:53:12.452Z,16.27
2022-11-08T06:55:39.557Z,16.29
2022-11-08T06:58:06.737Z,16.28
2022-11-08T07:00:33.671Z,16.26
2022-11-08T07:03:03.720Z,16.25
2022-11-08T07:05:32.686Z,16.25
2022-11-08T07:08:00.445Z,16.26
2022-11-08T07:10:29.702Z,16.26
2022-11-08T07:13:02.077Z,16.27
2022-11-08T07:15:30.115Z,16.27
2022-11-08T07:18:16.692Z,16.26
2022-11-08T07:20:44.056Z,16.24
2022-11-08T07:23:11.874Z,16.22
2022-11-08T07:25:39.277Z,16.21
2022-11-08T07:28:08.397Z,16.05
2022-11-08T07:30:36.293Z,16.08
2022-11-08T07:33:03.688Z,16.04
2022-11-08T07:35:30.874Z,16.05
2022-11-08T07:37:57.900Z,16.07
2022-11-08T07:40:25.480Z,16.08
2022-11-08T07:45:40.558Z,16.08
2022-11-08T07:48:12.313Z,16.09
2022-11-08T07:50:41.752Z,16.03
2022-11-08T07:53:09.686Z,16.10
2022-11-08T07:55:37.939Z,16.09
2022-11-08T07:58:06.016Z,16.10
2022-11-08T08:00:38.737Z,16.12
2022-11-08T08:03:07.557Z,16.14
2022-11-08T08:05:39.971Z,16.16
2022-11-08T08:08:07.669Z,16.17
2022-11-08T08:10:35.390Z,16.16
2022-11-08T08:13:02.727Z,16.16
2022-11-08T08:15:29.960Z,16.17
2022-11-08T08:17:59.591Z,16.17
2022-11-08T08:20:26.650Z,16.18
2022-11-08T08:22:53.480Z,16.21
2022-11-08T08:25:20.754Z,16.20
2022-11-08T08:27:49.189Z,16.17
2022-11-08T08:30:17.814Z,16.24
2022-11-08T08:32:50.253Z,16.24
2022-11-08T08:35:20.756Z,16.22
2022-11-08T08:37:47.753Z,16.20
2022-11-08T08:40:15.036Z,16.23
2022-11-08T08:42:42.311Z,16.24
2022-11-08T08:45:14.915Z,16.24
2022-11-08T08:47:42.685Z,16.24
2022-11-08T08:50:10.321Z,16.26
2022-11-08T08:52:37.237Z,16.23
2022-11-08T08:55:04.363Z,16.21
2022-11-08T08:57:31.459Z,16.20
2022-11-08T09:02:45.504Z,16.23
2022-11-08T09:05:13.956Z,16.24
2022-11-08T09:07:41.959Z,16.17
2022-11-08T09:10:10.746Z,16.23
2022-11-08T09:12:38.740Z,16.23
2022-11-08T09:15:08.064Z,16.24
2022-11-08T09:17:35.071Z,16.25
2022-11-08T09:20:02.250Z,16.24
2022-11-08T09:22:29.742Z,16.24
2022-11-08T09:24:56.945Z,16.24
2022-11-08T09:27:24.019Z,16.25
2022-11-08T09:29:51.088Z,16.25
2022-11-08T09:32:24.782Z,16.28
2022-11-08T09:35:00.823Z,16.29
2022-11-08T09:37:29.292Z,16.28
2022-11-08T09:39:56.485Z,16.28
2022-11-08T09:42:26.254Z,16.29
2022-11-08T09:44:59.204Z,16.29
2022-11-08T09:47:36.842Z,16.31
2022-11-08T09:50:23.380Z,16.29
2022-11-08T09:53:01.675Z,16.28
2022-11-08T09:55:42.590Z,16.28
2022-11-08T09:58:12.791Z,16.28
2022-11-08T10:00:41.538Z,16.28
2022-11-08T10:03:15.913Z,16.30
2022-11-08T10:06:06.835Z,16.30
2022-11-08T10:09:18.662Z,16.32
2022-11-08T10:12:18.349Z,16.27
2022-11-08T10:15:38.747Z,16.26
2022-11-08T10:18:17.833Z,16.24
2022-11-08T10:21:11.519Z,16.22
2022-11-08T10:23:47.110Z,16.22
2022-11-08T10:26:30.047Z,16.21
2022-11-08T10:29:03.625Z,16.18
2022-11-08T10:31:35.503Z,16.15
2022-11-08T10:34:05.124Z,16.20
2022-11-08T10:36:42.752Z,16.19
2022-11-08T10:39:09.755Z,16.12
2022-11-08T10:41:53.270Z,16.18
2022-11-08T10:44:25.565Z,16.20
2022-11-08T10:46:59.768Z,16.21
2022-11-08T10:49:47.288Z,16.21
2022-11-08T10:52:17.284Z,16.21
2022-11-08T10:54:52.963Z,16.22
2022-11-08T10:57:38.677Z,16.23
2022-11-08T11:00:27.715Z,16.25
2022-11-08T11:03:06.940Z,16.17
2022-11-08T11:05:41.407Z,16.24
2022-11-08T11:08:08.390Z,16.26
2022-11-08T11:10:45.826Z,16.27
2022-11-08T11:13:25.198Z,16.26
2022-11-08T11:16:01.079Z,16.31
2022-11-08T11:18:28.282Z,16.31
2022-11-08T11:21:24.734Z,16.33
2022-11-08T11:23:55.220Z,16.30
2022-11-08T11:26:44.900Z,16.31
2022-11-08T11:29:24.146Z,16.30
2022-11-08T11:31:54.120Z,16.32
2022-11-08T11:34:36.439Z,16.32
2022-11-08T11:37:15.198Z,16.33
2022-11-08T11:40:11.214Z,16.37
2022-11-08T11:42:48.107Z,16.38
2022-11-08T11:45:33.330Z,16.38
2022-11-08T11:48:10.862Z,16.45
2022-11-08T11:50:40.678Z,16.47
2022-11-08T11:53:28.314Z,16.47
2022-11-08T11:56:04.201Z,16.57
2022-11-08T11:58:44.441Z,16.61
2022-11-08T12:01:43.298Z,16.65
2022-11-08T12:04:34.882Z,16.73
2022-11-08T12:07:27.964Z,16.79
2022-11-08T12:10:12.848Z,16.83
2022-11-08T12:12:51.366Z,16.87
2022-11-08T12:15:37.956Z,16.96
2022-11-08T12:18:07.505Z,16.99
2022-11-08T12:21:12.839Z,17.06
2022-11-08T12:23:56.715Z,17.11
2022-11-08T12:27:04.042Z,17.17
2022-11-08T12:29:47.240Z,17.22
2022-11-08T12:32:31.784Z,17.29
2022-11-08T12:35:25.809Z,17.36
2022-11-08T12:38:17.347Z,17.41
2022-11-08T12:40:44.602Z,17.45
2022-11-08T12:43:24.281Z,17.48
2022-11-08T12:46:19.763Z,17.51
2022-11-08T12:49:01.076Z,17.59
2022-11-08T12:51:53.057Z,17.65
2022-11-08T12:54:30.121Z,17.65
2022-11-08T12:57:02.908Z,17.71
2022-11-08T12:59:37.575Z,17.73
2022-11-08T13:02:12.218Z,17.76
2022-11-08T13:04:56.458Z,17.76
2022-11-08T13:07:28.667Z,17.78
2022-11-08T13:09:58.452Z,17.79
2022-11-08T13:12:37.201Z,17.79
2022-11-08T13:15:06.923Z,17.77
2022-11-08T13:17:33.929Z,17.85
2022-11-08T13:20:05.924Z,17.89
2022-11-08T13:22:32.989Z,17.91
2022-11-08T13:25:09.430Z,17.88
2022-11-08T13:27:43.079Z,17.87
2022-11-08T13:30:15.811Z,17.85
2022-11-08T13:33:01.649Z,17.85
2022-11-08T13:35:39.320Z,17.85
2022-11-08T13:38:28.234Z,17.85
2022-11-08T13:41:04.192Z,17.84
2022-11-08T13:43:33.502Z,17.86
2022-11-08T13:46:31.152Z,17.85
2022-11-08T13:48:58.207Z,17.86
2022-11-08T13:51:29.769Z,17.88
2022-11-08T13:53:58.464Z,17.94
2022-11-08T13:56:27.174Z,17.95
2022-11-08T13:58:54.323Z,17.96
2022-11-08T14:01:21.283Z,17.91
2022-11-08T14:03:48.551Z,17.94
2022-11-08T14:06:28.567Z,17.99
2022-11-08T14:09:40.492Z,18.02
2022-11-08T14:12:22.294Z,18.03
2022-11-08T14:15:23.086Z,18.01
2022-11-08T14:17:54.680Z,18.02
2022-11-08T14:20:30.784Z,18.04
2022-11-08T14:23:02.638Z,18.05
2022-11-08T14:25:34.530Z,18.06
2022-11-08T14:28:01.997Z,18.07
2022-11-08T14:30:29.066Z,18.05
2022-11-08T14:33:18.312Z,18.03
2022-11-08T14:36:01.606Z,18.05
2022-11-08T14:38:30.983Z,18.02
2022-11-08T14:41:07.151Z,18.03
2022-11-08T14:43:44.219Z,18.05
2022-11-08T14:46:19.811Z,18.12
2022-11-08T14:48:52.618Z,18.21
2022-11-08T14:51:19.951Z,18.28
2022-11-08T14:53:49.504Z,18.34
2022-11-08T14:56:37.023Z,18.37
2022-11-08T14:59:10.631Z,18.43
2022-11-08T15:01:38.416Z,18.50
2022-11-08T15:04:19.071Z,18.54
2022-11-08T15:06:49.330Z,18.59
2022-11-08T15:09:29.043Z,18.66
2022-11-08T15:11:59.187Z,18.69
2022-11-08T15:14:29.356Z,18.71
2022-11-08T15:17:02.599Z,18.75
2022-11-08T15:19:34.996Z,18.80
2022-11-08T15:22:04.466Z,18.86
2022-11-08T15:24:40.120Z,18.92
2022-11-08T15:27:13.053Z,19.00
2022-11-08T15:29:53.544Z,19.05
2022-11-08T15:32:22.266Z,19.09
2022-11-08T15:34:54.254Z,19.11
2022-11-08T15:37:27.960Z,19.14
2022-11-08T15:39:55.885Z,19.15
2022-11-08T15:42:23.063Z,19.13
2022-11-08T15:45:01.325Z,19.22
2022-11-08T15:47:43.579Z,19.23
2022-11-08T15:50:31.651Z,19.23
2022-11-08T15:53:00.587Z,19.17
2022-11-08T15:55:30.054Z,19.00
2022-11-08T15:57:59.332Z,19.03
2022-11-08T16:00:38.717Z,19.09
2022-11-08T16:03:05.714Z,19.15
2022-11-08T16:05:32.775Z,19.05
2022-11-08T16:08:00.589Z,19.05
2022-11-08T16:10:41.815Z,18.98
2022-11-08T16:13:19.748Z,18.84
2022-11-08T16:15:47.531Z,18.84
2022-11-08T16:18:15.071Z,18.75
2022-11-08T16:20:42.496Z,18.73
2022-11-08T16:23:11.744Z,18.70
2022-11-08T16:25:46.359Z,18.69
2022-11-08T16:28:41.102Z,18.73
2022-11-08T16:31:14.005Z,18.64
2022-11-08T16:33:43.151Z,18.61
2022-11-08T16:36:24.980Z,18.58
2022-11-08T16:39:03.138Z,18.52
2022-11-08T16:41:32.659Z,18.43
2022-11-08T16:44:00.614Z,18.44
2022-11-08T16:46:31.703Z,18.38
2022-11-08T16:49:00.435Z,18.29
2022-11-08T16:51:28.870Z,18.32
2022-11-08T16:53:55.925Z,18.28
2022-11-08T16:56:23.453Z,18.25
2022-11-08T16:58:51.475Z,18.28
2022-11-08T17:01:23.927Z,18.23
2022-11-08T17:03:51.111Z,18.26
2022-11-08T17:06:19.446Z,18.18
2022-11-08T17:08:46.871Z,18.14
2022-11-08T17:11:20.044Z,18.17
2022-11-08T17:13:48.191Z,18.15
2022-11-08T17:16:16.606Z,18.13
2022-11-08T17:18:47.456Z,18.10
2022-11-08T17:21:43.011Z,18.06
2022-11-08T17:24:04.848Z,18.08
2022-11-08T17:26:31.850Z,18.09
2022-11-08T17:28:58.886Z,18.22
2022-11-08T17:31:26.457Z,18.18
2022-11-08T17:33:55.881Z,18.15
2022-11-08T17:36:23.128Z,18.16
2022-11-08T17:38:50.425Z,18.21
2022-11-08T17:41:18.386Z,18.24
2022-11-08T17:43:47.991Z,18.32
2022-11-08T17:46:15.479Z,18.40
2022-11-08T17:48:42.424Z,18.39
2022-11-08T17:51:09.771Z,18.44
2022-11-08T17:53:36.933Z,18.42
2022-11-08T17:56:06.080Z,18.41
2022-11-08T17:58:34.568Z,18.43
2022-11-08T18:01:04.573Z,18.47
2022-11-08T18:03:32.581Z,18.50
2022-11-08T18:06:00.044Z,18.48
2022-11-08T18:08:29.282Z,18.57
2022-11-08T18:10:56.845Z,18.59
2022-11-08T18:13:27.723Z,18.69
2022-11-08T18:15:54.964Z,18.71
2022-11-08T18:18:22.007Z,18.74
2022-11-08T18:20:55.636Z,18.76
2022-11-08T18:23:25.189Z,18.87
2022-11-08T18:25:53.864Z,18.94
2022-11-08T18:28:22.735Z,18.98
2022-11-08T18:30:50.486Z,18.99
2022-11-08T18:33:19.139Z,18.97
2022-11-08T18:35:47.351Z,18.97
2022-11-08T18:38:15.411Z,19.01
2022-11-08T18:40:46.386Z,19.01
2022-11-08T18:43:13.718Z,19.02
2022-11-08T18:45:43.648Z,19.05
2022-11-08T18:48:12.389Z,19.06
2022-11-08T18:50:40.412Z,19.08
2022-11-08T18:53:10.180Z,19.04
2022-11-08T18:55:37.445Z,19.00
2022-11-08T18:58:04.648Z,18.96
2022-11-08T19:00:32.034Z,18.89
2022-11-08T19:02:59.431Z,18.73
2022-11-08T19:05:26.642Z,18.61
2022-11-08T19:07:55.105Z,18.53
2022-11-08T19:10:22.522Z,18.47
2022-11-08T19:12:49.943Z,18.47
2022-11-08T19:15:17.140Z,18.44
2022-11-08T19:17:49.814Z,18.44
2022-11-08T19:20:20.174Z,18.51
2022-11-08T19:22:47.728Z,18.51
2022-11-08T19:25:17.741Z,18.48
2022-11-08T19:27:45.194Z,18.46
2022-11-08T19:30:13.100Z,18.49
2022-11-08T19:32:40.240Z,18.50
2022-11-08T19:35:08.021Z,18.47
2022-11-08T19:37:35.276Z,18.42
2022-11-08T19:40:02.323Z,18.44
2022-11-08T19:42:29.560Z,18.46
2022-11-08T19:44:56.737Z,18.49
2022-11-08T19:47:23.856Z,18.49
2022-11-08T19:49:50.991Z,18.48
2022-11-08T19:52:18.297Z,18.49
2022-11-08T19:54:46.761Z,18.50
2022-11-08T19:57:13.664Z,18.49
2022-11-08T19:59:41.138Z,18.53
2022-11-08T20:02:09.779Z,18.53
2022-11-08T20:04:37.347Z,18.52
2022-11-08T20:07:04.703Z,18.56
2022-11-08T20:09:36.092Z,18.57
2022-11-08T20:12:06.234Z,18.56
2022-11-08T20:14:34.042Z,18.61
2022-11-08T20:17:01.812Z,18.61
2022-11-08T20:19:29.500Z,18.65
2022-11-08T20:21:58.171Z,18.68
2022-11-08T20:24:26.003Z,18.77
2022-11-08T20:26:53.210Z,18.82
2022-11-08T20:29:20.873Z,18.88
2022-11-08T20:31:52.679Z,18.93
2022-11-08T20:34:20.088Z,18.99
2022-11-08T20:36:48.136Z,19.02
2022-11-08T20:39:15.789Z,19.07
2022-11-08T20:41:43.428Z,19.03
2022-11-08T20:44:10.848Z,19.05
2022-11-08T20:46:38.868Z,19.13
2022-11-08T20:49:07.006Z,19.15
2022-11-08T20:51:35.725Z,19.19
2022-11-08T20:54:03.246Z,19.14
2022-11-08T20:56:30.969Z,19.20
2022-11-08T20:58:58.396Z,19.17
2022-11-08T21:01:28.698Z,19.04
2022-11-08T21:03:56.386Z,19.15
2022-11-08T21:06:26.212Z,19.16
2022-11-08T21:09:01.852Z,19.10
2022-11-08T21:11:34.838Z,18.98
2022-11-08T21:14:03.090Z,18.92
2022-11-08T21:16:38.298Z,18.84
2022-11-08T21:19:14.390Z,18.84
2022-11-08T21:21:42.225Z,18.83
2022-11-08T21:24:10.018Z,18.83
2022-11-08T21:26:37.969Z,18.81
2022-11-08T21:29:07.873Z,18.78
2022-11-08T21:31:35.138Z,18.80
2022-11-08T21:34:05.142Z,18.71
2022-11-08T21:36:33.571Z,18.73
2022-11-08T21:39:01.950Z,18.69
2022-11-08T21:41:30.125Z,18.68
2022-11-08T21:43:59.069Z,18.67
2022-11-08T21:46:28.315Z,18.63
2022-11-08T21:48:57.650Z,18.60
2022-11-08T21:51:26.055Z,18.61
2022-11-08T21:53:56.090Z,18.60
2022-11-08T21:56:25.247Z,18.59
2022-11-08T21:58:53.907Z,18.59
2022-11-08T22:01:24.309Z,18.58
2022-11-08T22:03:54.728Z,18.52
2022-11-08T22:06:23.093Z,18.44
2022-11-08T22:08:50.518Z,18.49
2022-11-08T22:11:17.605Z,18.48
2022-11-08T22:13:44.720Z,18.52
2022-11-08T22:16:11.602Z,18.53
2022-11-08T22:21:43.556Z,18.53
2022-11-08T22:24:18.485Z,18.52
2022-11-08T22:26:46.118Z,18.52
2022-11-08T22:29:13.633Z,18.52
2022-11-08T22:31:41.037Z,18.51
2022-11-08T22:34:09.473Z,18.50
2022-11-08T22:36:44.094Z,18.49
2022-11-08T22:39:16.840Z,18.47
2022-11-08T22:41:44.531Z,18.46
2022-11-08T22:44:12.876Z,18.44
2022-11-08T22:46:45.037Z,18.43
2022-11-08T22:49:12.973Z,18.42
2022-11-08T22:51:40.841Z,18.37
2022-11-08T22:54:08.235Z,18.39
2022-11-08T22:56:36.260Z,18.39
2022-11-08T22:59:03.652Z,18.37
2022-11-08T23:01:30.552Z,18.37
2022-11-08T23:03:57.989Z,18.30
2022-11-08T23:06:24.868Z,18.29
2022-11-08T23:08:51.840Z,18.12
2022-11-08T23:11:37.553Z,17.99
2022-11-08T23:14:23.627Z,17.87
2022-11-08T23:16:50.529Z,17.76
2022-11-08T23:19:40.578Z,17.68
2022-11-08T23:22:30.609Z,17.60
2022-11-08T23:24:57.828Z,17.50
2022-11-08T23:27:44.329Z,17.41
2022-11-08T23:30:33.413Z,17.40
2022-11-08T23:33:00.591Z,17.35
2022-11-08T23:35:27.665Z,17.28
2022-11-08T23:37:55.229Z,17.24
2022-11-08T23:40:41.081Z,17.19
2022-11-08T23:43:36.931Z,17.14
2022-11-08T23:46:12.120Z,17.10
2022-11-08T23:48:40.318Z,17.04
2022-11-08T23:51:08.006Z,17.02
2022-11-08T23:53:37.392Z,16.98
2022-11-08T23:56:04.748Z,16.93
2022-11-08T23:58:32.581Z,16.89
